sensor_id;sensor_type;location;lat;lon;timestamp;pressure;altitude;pressure_sealevel;temperature;humidity
5609;BME280;2826;51.354;9.588;2023-01-10T00:01:39;97497.25;;;6.18;90.18
5609;BME280;2826;51.354;9.588;2023-01-10T00:04:05;97499.91;;;6.15;89.95
5609;BME280;2826;51.354;9.588;2023-01-10T00:06:32;97502.38;;;6.18;90.01
5609;BME280;2826;51.354;9.588;2023-01-10T00:08:58;97512.72;;;6.17;89.34
5609;BME280;2826;51.354;9.588;2023-01-10T00:11:25;97514.44;;;6.18;89.42
5609;BME280;2826;51.354;9.588;2023-01-10T00:14:11;97528.88;;;6.22;89.70
5609;BME280;2826;51.354;9.588;2023-01-10T00:16:37;97524.56;;;6.22;89.41
5609;BME280;2826;51.354;9.588;2023-01-10T00:19:05;97526.25;;;6.23;89.37
5609;BME280;2826;51.354;9.588;2023-01-10T00:21:32;97536.50;;;6.25;89.09
5609;BME280;2826;51.354;9.588;2023-01-10T00:23:59;97531.34;;;6.25;89.33
5609;BME280;2826;51.354;9.588;2023-01-10T00:26:42;97539.94;;;6.25;89.18
5609;BME280;2826;51.354;9.588;2023-01-10T00:29:13;97545.06;;;6.25;89.51
5609;BME280;2826;51.354;9.588;2023-01-10T00:31:40;97544.22;;;6.25;89.44
5609;BME280;2826;51.354;9.588;2023-01-10T00:34:06;97539.25;;;6.20;89.42
5609;BME280;2826;51.354;9.588;2023-01-10T00:36:33;97550.09;;;6.28;89.59
5609;BME280;2826;51.354;9.588;2023-01-10T00:39:00;97546.66;;;6.30;89.83
5609;BME280;2826;51.354;9.588;2023-01-10T00:41:26;97555.16;;;6.32;89.80
5609;BME280;2826;51.354;9.588;2023-01-10T00:44:12;97558.44;;;6.37;89.50
5609;BME280;2826;51.354;9.588;2023-01-10T00:46:39;97554.34;;;6.31;90.20
5609;BME280;2826;51.354;9.588;2023-01-10T00:49:05;97564.56;;;6.33;90.24
5609;BME280;2826;51.354;9.588;2023-01-10T00:51:33;97576.78;;;6.26;90.74
5609;BME280;2826;51.354;9.588;2023-01-10T00:54:00;97582.03;;;6.24;91.11
5609;BME280;2826;51.354;9.588;2023-01-10T00:56:27;97582.06;;;6.23;91.47
5609;BME280;2826;51.354;9.588;2023-01-10T00:58:54;97587.09;;;6.26;90.99
5609;BME280;2826;51.354;9.588;2023-01-10T01:01:21;97598.28;;;6.25;91.06
5609;BME280;2826;51.354;9.588;2023-01-10T01:03:48;97606.00;;;6.25;91.48
5609;BME280;2826;51.354;9.588;2023-01-10T01:06:15;97612.19;;;6.19;91.51
5609;BME280;2826;51.354;9.588;2023-01-10T01:08:41;97616.50;;;6.19;91.56
5609;BME280;2826;51.354;9.588;2023-01-10T01:11:08;97630.22;;;6.19;91.71
5609;BME280;2826;51.354;9.588;2023-01-10T01:13:34;97638.84;;;6.18;92.43
5609;BME280;2826;51.354;9.588;2023-01-10T01:16:01;97637.16;;;6.17;92.55
5609;BME280;2826;51.354;9.588;2023-01-10T01:18:29;97649.16;;;6.17;92.52
5609;BME280;2826;51.354;9.588;2023-01-10T01:20:56;97659.47;;;6.17;92.73
5609;BME280;2826;51.354;9.588;2023-01-10T01:23:25;97672.44;;;6.13;92.74
5609;BME280;2826;51.354;9.588;2023-01-10T01:25:52;97675.03;;;6.13;92.93
5609;BME280;2826;51.354;9.588;2023-01-10T01:28:19;97675.09;;;6.10;93.50
5609;BME280;2826;51.354;9.588;2023-01-10T01:30:47;97687.94;;;6.12;93.54
5609;BME280;2826;51.354;9.588;2023-01-10T01:33:14;97692.28;;;6.10;93.71
5609;BME280;2826;51.354;9.588;2023-01-10T01:35:43;97661.22;;;5.84;93.95
5609;BME280;2826;51.354;9.588;2023-01-10T01:38:09;97700.00;;;6.10;94.01
5609;BME280;2826;51.354;9.588;2023-01-10T01:40:36;97702.53;;;6.11;93.88
5609;BME280;2826;51.354;9.588;2023-01-10T01:43:03;97704.28;;;6.11;93.77
5609;BME280;2826;51.354;9.588;2023-01-10T01:45:36;97712.88;;;6.10;94.09
5609;BME280;2826;51.354;9.588;2023-01-10T01:48:08;97715.41;;;6.11;94.08
5609;BME280;2826;51.354;9.588;2023-01-10T01:50:42;97723.03;;;6.14;94.22
5609;BME280;2826;51.354;9.588;2023-01-10T01:53:13;97728.22;;;6.13;94.41
5609;BME280;2826;51.354;9.588;2023-01-10T01:55:44;97723.09;;;6.13;94.34
5609;BME280;2826;51.354;9.588;2023-01-10T01:58:14;97733.38;;;6.13;94.42
5609;BME280;2826;51.354;9.588;2023-01-10T02:00:43;97741.06;;;6.14;94.15
5609;BME280;2826;51.354;9.588;2023-01-10T02:03:10;97744.44;;;6.17;94.42
5609;BME280;2826;51.354;9.588;2023-01-10T02:05:39;97753.03;;;6.16;94.11
5609;BME280;2826;51.354;9.588;2023-01-10T02:08:09;97754.91;;;6.10;94.40
5609;BME280;2826;51.354;9.588;2023-01-10T02:10:40;97756.59;;;6.11;94.75
5609;BME280;2826;51.354;9.588;2023-01-10T02:13:13;97763.53;;;6.09;94.84
5609;BME280;2826;51.354;9.588;2023-01-10T02:15:40;97772.19;;;6.07;94.76
5609;BME280;2826;51.354;9.588;2023-01-10T02:18:07;97768.00;;;6.01;95.10
5609;BME280;2826;51.354;9.588;2023-01-10T02:20:41;97775.72;;;6.01;95.31
5609;BME280;2826;51.354;9.588;2023-01-10T02:23:24;97790.09;;;6.10;94.95
5609;BME280;2826;51.354;9.588;2023-01-10T02:26:25;97789.22;;;6.11;94.29
5609;BME280;2826;51.354;9.588;2023-01-10T02:32:08;97800.38;;;6.10;94.54
5609;BME280;2826;51.354;9.588;2023-01-10T02:34:46;97799.59;;;6.08;94.61
5609;BME280;2826;51.354;9.588;2023-01-10T02:37:19;97798.75;;;6.07;94.86
5609;BME280;2826;51.354;9.588;2023-01-10T02:39:58;97799.59;;;6.08;94.77
5609;BME280;2826;51.354;9.588;2023-01-10T02:42:33;97806.34;;;6.12;94.48
5609;BME280;2826;51.354;9.588;2023-01-10T02:45:07;97808.03;;;6.13;93.90
5609;BME280;2826;51.354;9.588;2023-01-10T02:47:37;97813.00;;;6.19;93.05
5609;BME280;2826;51.354;9.588;2023-01-10T02:50:34;97714.06;;;5.66;92.21
5609;BME280;2826;51.354;9.588;2023-01-10T02:53:05;97817.91;;;6.28;92.00
5609;BME280;2826;51.354;9.588;2023-01-10T02:55:37;97816.25;;;6.26;91.88
5609;BME280;2826;51.354;9.588;2023-01-10T02:58:16;97823.00;;;6.30;92.07
5609;BME280;2826;51.354;9.588;2023-01-10T03:00:54;97829.09;;;6.27;91.86
5609;BME280;2826;51.354;9.588;2023-01-10T03:03:32;97829.94;;;6.28;91.78
5609;BME280;2826;51.354;9.588;2023-01-10T03:06:09;97839.44;;;6.26;91.59
5609;BME280;2826;51.354;9.588;2023-01-10T03:08:48;97835.31;;;6.20;91.99
5609;BME280;2826;51.354;9.588;2023-01-10T03:11:16;97838.59;;;6.25;90.98
5609;BME280;2826;51.354;9.588;2023-01-10T03:14:04;97845.25;;;6.33;90.70
5609;BME280;2826;51.354;9.588;2023-01-10T03:16:33;97843.50;;;6.35;90.16
5609;BME280;2826;51.354;9.588;2023-01-10T03:19:07;97852.06;;;6.35;89.92
5609;BME280;2826;51.354;9.588;2023-01-10T03:21:35;97855.63;;;6.31;90.09
5609;BME280;2826;51.354;9.588;2023-01-10T03:24:07;97855.56;;;6.33;89.54
5609;BME280;2826;51.354;9.588;2023-01-10T03:26:43;97855.63;;;6.31;89.70
5609;BME280;2826;51.354;9.588;2023-01-10T03:29:18;97858.50;;;6.20;89.19
5609;BME280;2826;51.354;9.588;2023-01-10T03:31:49;97820.69;;;5.87;89.79
5609;BME280;2826;51.354;9.588;2023-01-10T03:34:19;97876.63;;;6.16;90.07
5609;BME280;2826;51.354;9.588;2023-01-10T03:36:51;97885.94;;;6.20;89.91
5609;BME280;2826;51.354;9.588;2023-01-10T03:39:30;97888.50;;;6.21;89.91
5609;BME280;2826;51.354;9.588;2023-01-10T03:42:06;97900.41;;;6.25;89.43
5609;BME280;2826;51.354;9.588;2023-01-10T03:44:39;97886.94;;;6.14;89.21
5609;BME280;2826;51.354;9.588;2023-01-10T03:47:14;97882.91;;;6.05;89.31
5609;BME280;2826;51.354;9.588;2023-01-10T03:49:47;97910.84;;;6.19;88.82
5609;BME280;2826;51.354;9.588;2023-01-10T03:52:16;97914.38;;;6.15;89.05
5609;BME280;2826;51.354;9.588;2023-01-10T03:54:45;97916.25;;;6.08;89.12
5609;BME280;2826;51.354;9.588;2023-01-10T03:57:16;97923.84;;;6.14;88.60
5609;BME280;2826;51.354;9.588;2023-01-10T03:59:43;97925.66;;;6.11;88.52
5609;BME280;2826;51.354;9.588;2023-01-10T04:02:10;97926.63;;;6.07;88.61
5609;BME280;2826;51.354;9.588;2023-01-10T04:04:37;97927.56;;;6.04;88.59
5609;BME280;2826;51.354;9.588;2023-01-10T04:07:05;97928.50;;;5.98;88.79
5609;BME280;2826;51.354;9.588;2023-01-10T04:09:32;97929.34;;;5.99;88.54
5609;BME280;2826;51.354;9.588;2023-01-10T04:11:58;97934.47;;;6.00;88.13
5609;BME280;2826;51.354;9.588;2023-01-10T04:14:25;97943.00;;;6.04;88.41
5609;BME280;2826;51.354;9.588;2023-01-10T04:16:52;97952.41;;;6.05;88.09
5609;BME280;2826;51.354;9.588;2023-01-10T04:19:18;97962.75;;;6.00;87.65
5609;BME280;2826;51.354;9.588;2023-01-10T04:21:45;97973.88;;;6.04;87.48
5609;BME280;2826;51.354;9.588;2023-01-10T04:24:13;97974.69;;;6.06;87.43
5609;BME280;2826;51.354;9.588;2023-01-10T04:26:39;97977.19;;;6.09;87.18
5609;BME280;2826;51.354;9.588;2023-01-10T04:29:06;97978.13;;;6.07;87.29
5609;BME280;2826;51.354;9.588;2023-01-10T04:31:32;97948.53;;;5.85;87.26
5609;BME280;2826;51.354;9.588;2023-01-10T04:33:59;97982.41;;;6.06;87.50
5609;BME280;2826;51.354;9.588;2023-01-10T04:36:26;97984.09;;;6.07;87.33
5609;BME280;2826;51.354;9.588;2023-01-10T04:38:52;97984.97;;;6.06;87.67
5609;BME280;2826;51.354;9.588;2023-01-10T04:41:20;97993.50;;;6.08;87.42
5609;BME280;2826;51.354;9.588;2023-01-10T04:43:46;98000.41;;;6.08;87.29
5609;BME280;2826;51.354;9.588;2023-01-10T04:46:13;98008.81;;;6.14;87.11
5609;BME280;2826;51.354;9.588;2023-01-10T04:48:40;98007.97;;;6.12;87.10
5609;BME280;2826;51.354;9.588;2023-01-10T04:51:07;98008.91;;;6.10;87.02
5609;BME280;2826;51.354;9.588;2023-01-10T04:53:33;98011.63;;;6.04;86.93
5609;BME280;2826;51.354;9.588;2023-01-10T04:56:03;98014.25;;;6.00;86.88
5609;BME280;2826;51.354;9.588;2023-01-10T04:58:32;98024.53;;;6.00;86.52
5609;BME280;2826;51.354;9.588;2023-01-10T05:00:59;98027.22;;;5.97;86.82
5609;BME280;2826;51.354;9.588;2023-01-10T05:03:25;98033.22;;;5.96;86.95
5609;BME280;2826;51.354;9.588;2023-01-10T05:05:52;98041.81;;;5.95;87.03
5609;BME280;2826;51.354;9.588;2023-01-10T05:08:18;98047.00;;;5.94;86.84
5609;BME280;2826;51.354;9.588;2023-01-10T05:10:45;98036.81;;;5.91;87.20
5609;BME280;2826;51.354;9.588;2023-01-10T05:13:12;98046.94;;;5.97;86.81
5609;BME280;2826;51.354;9.588;2023-01-10T05:15:39;98037.63;;;5.91;87.01
5609;BME280;2826;51.354;9.588;2023-01-10T05:18:06;98050.50;;;5.91;86.96
5609;BME280;2826;51.354;9.588;2023-01-10T05:20:33;98007.50;;;5.57;87.36
5609;BME280;2826;51.354;9.588;2023-01-10T05:22:59;98039.50;;;5.84;87.20
5609;BME280;2826;51.354;9.588;2023-01-10T05:25:26;98042.97;;;5.83;87.44
5609;BME280;2826;51.354;9.588;2023-01-10T05:27:53;98025.34;;;5.66;87.27
5609;BME280;2826;51.354;9.588;2023-01-10T05:30:20;98055.09;;;5.78;87.36
5609;BME280;2826;51.354;9.588;2023-01-10T05:32:47;98051.66;;;5.78;87.63
5609;BME280;2826;51.354;9.588;2023-01-10T05:35:14;98057.72;;;5.75;87.57
5609;BME280;2826;51.354;9.588;2023-01-10T05:37:41;98067.25;;;5.70;87.49
5609;BME280;2826;51.354;9.588;2023-01-10T05:40:09;98068.22;;;5.66;87.65
5609;BME280;2826;51.354;9.588;2023-01-10T05:42:36;98075.06;;;5.65;87.80
5609;BME280;2826;51.354;9.588;2023-01-10T05:45:03;98056.47;;;5.54;87.69
5609;BME280;2826;51.354;9.588;2023-01-10T05:47:30;98080.25;;;5.63;87.35
5609;BME280;2826;51.354;9.588;2023-01-10T05:49:58;98093.19;;;5.60;87.47
5609;BME280;2826;51.354;9.588;2023-01-10T05:52:24;98093.25;;;5.57;87.64
5609;BME280;2826;51.354;9.588;2023-01-10T05:54:51;98105.31;;;5.54;88.17
5609;BME280;2826;51.354;9.588;2023-01-10T05:57:17;98109.59;;;5.55;88.15
5609;BME280;2826;51.354;9.588;2023-01-10T05:59:46;98123.19;;;5.60;88.31
5609;BME280;2826;51.354;9.588;2023-01-10T06:02:12;98116.41;;;5.56;88.24
5609;BME280;2826;51.354;9.588;2023-01-10T06:04:39;98125.00;;;5.56;88.33
5609;BME280;2826;51.354;9.588;2023-01-10T06:07:07;98124.16;;;5.54;88.34
5609;BME280;2826;51.354;9.588;2023-01-10T06:09:33;98132.75;;;5.53;88.70
5609;BME280;2826;51.354;9.588;2023-01-10T06:12:00;98132.75;;;5.53;88.45
5609;BME280;2826;51.354;9.588;2023-01-10T06:14:26;98132.03;;;5.46;88.32
5609;BME280;2826;51.354;9.588;2023-01-10T06:16:53;98136.44;;;5.40;88.62
5609;BME280;2826;51.354;9.588;2023-01-10T06:19:19;98104.47;;;5.07;88.41
5609;BME280;2826;51.354;9.588;2023-01-10T06:21:46;98148.56;;;5.33;88.32
5609;BME280;2826;51.354;9.588;2023-01-10T06:24:13;98150.38;;;5.28;89.30
5609;BME280;2826;51.354;9.588;2023-01-10T06:26:40;98161.59;;;5.23;89.38
5609;BME280;2826;51.354;9.588;2023-01-10T06:29:06;98158.25;;;5.20;89.77
5609;BME280;2826;51.354;9.588;2023-01-10T06:31:35;98161.63;;;5.22;89.27
5609;BME280;2826;51.354;9.588;2023-01-10T06:34:01;98161.72;;;5.17;89.32
5609;BME280;2826;51.354;9.588;2023-01-10T06:36:28;98167.78;;;5.15;89.26
5609;BME280;2826;51.354;9.588;2023-01-10T06:38:54;98177.19;;;5.14;89.62
5609;BME280;2826;51.354;9.588;2023-01-10T06:41:23;98179.81;;;5.09;89.31
5609;BME280;2826;51.354;9.588;2023-01-10T06:43:49;98187.63;;;5.06;89.73
5609;BME280;2826;51.354;9.588;2023-01-10T06:46:17;98196.19;;;5.05;89.80
5609;BME280;2826;51.354;9.588;2023-01-10T06:48:45;98198.66;;;5.12;89.65
5609;BME280;2826;51.354;9.588;2023-01-10T06:51:13;98196.06;;;5.13;89.69
5609;BME280;2826;51.354;9.588;2023-01-10T06:53:41;98199.50;;;5.12;89.73
5609;BME280;2826;51.354;9.588;2023-01-10T06:56:08;98207.09;;;5.20;90.10
5609;BME280;2826;51.354;9.588;2023-01-10T06:58:37;98212.25;;;5.20;89.69
5609;BME280;2826;51.354;9.588;2023-01-10T07:01:04;98213.94;;;5.21;89.90
5609;BME280;2826;51.354;9.588;2023-01-10T07:03:31;98219.84;;;5.25;89.62
5609;BME280;2826;51.354;9.588;2023-01-10T07:06:00;98229.31;;;5.24;89.80
5609;BME280;2826;51.354;9.588;2023-01-10T07:08:27;98221.53;;;5.26;89.85
5609;BME280;2826;51.354;9.588;2023-01-10T07:10:56;98218.16;;;5.23;89.49
5609;BME280;2826;51.354;9.588;2023-01-10T07:13:23;98235.25;;;5.26;89.51
5609;BME280;2826;51.354;9.588;2023-01-10T07:15:51;98237.78;;;5.29;89.40
5609;BME280;2826;51.354;9.588;2023-01-10T07:18:17;98244.59;;;5.32;89.37
5609;BME280;2826;51.354;9.588;2023-01-10T07:20:44;98237.78;;;5.29;89.35
5609;BME280;2826;51.354;9.588;2023-01-10T07:23:10;98239.47;;;5.30;89.09
5609;BME280;2826;51.354;9.588;2023-01-10T07:25:37;98240.34;;;5.29;89.47
5609;BME280;2826;51.354;9.588;2023-01-10T07:28:04;98243.75;;;5.30;88.98
5609;BME280;2826;51.354;9.588;2023-01-10T07:30:30;98238.56;;;5.33;89.34
5609;BME280;2826;51.354;9.588;2023-01-10T07:32:58;98245.47;;;5.32;89.15
5609;BME280;2826;51.354;9.588;2023-01-10T07:35:28;98247.97;;;5.34;89.14
5609;BME280;2826;51.354;9.588;2023-01-10T07:37:56;98258.22;;;5.37;89.18
5609;BME280;2826;51.354;9.588;2023-01-10T07:40:23;98270.38;;;5.27;89.51
5609;BME280;2826;51.354;9.588;2023-01-10T07:42:55;98265.06;;;5.36;89.62
5609;BME280;2826;51.354;9.588;2023-01-10T07:45:22;98265.13;;;5.35;89.83
5609;BME280;2826;51.354;9.588;2023-01-10T07:47:48;98259.06;;;5.39;89.48
5609;BME280;2826;51.354;9.588;2023-01-10T07:50:16;98263.31;;;5.40;89.41
5609;BME280;2826;51.354;9.588;2023-01-10T07:52:43;98269.19;;;5.48;89.23
5609;BME280;2826;51.354;9.588;2023-01-10T07:55:10;98274.31;;;5.48;88.98
5609;BME280;2826;51.354;9.588;2023-01-10T07:57:36;98270.88;;;5.49;89.36
5609;BME280;2826;51.354;9.588;2023-01-10T08:00:03;98282.16;;;5.41;89.32
5609;BME280;2826;51.354;9.588;2023-01-10T08:02:32;98277.81;;;5.46;89.38
5609;BME280;2826;51.354;9.588;2023-01-10T08:04:58;98284.63;;;5.48;89.38
5609;BME280;2826;51.354;9.588;2023-01-10T08:07:28;98299.94;;;5.53;89.06
5609;BME280;2826;51.354;9.588;2023-01-10T08:09:55;98296.63;;;5.48;89.26
5609;BME280;2826;51.354;9.588;2023-01-10T08:12:21;98308.59;;;5.49;89.79
5609;BME280;2826;51.354;9.588;2023-01-10T08:14:49;98315.31;;;5.58;89.58
5609;BME280;2826;51.354;9.588;2023-01-10T08:17:15;98314.50;;;5.54;89.40
5609;BME280;2826;51.354;9.588;2023-01-10T08:19:42;98322.22;;;5.54;89.40
5609;BME280;2826;51.354;9.588;2023-01-10T08:22:08;98295.91;;;5.38;89.53
5609;BME280;2826;51.354;9.588;2023-01-10T08:24:36;98322.13;;;5.62;89.32
5609;BME280;2826;51.354;9.588;2023-01-10T08:27:03;98312.63;;;5.64;89.71
5609;BME280;2826;51.354;9.588;2023-01-10T08:29:30;98324.63;;;5.65;89.35
5609;BME280;2826;51.354;9.588;2023-01-10T08:31:56;98316.81;;;5.71;89.27
5609;BME280;2826;51.354;9.588;2023-01-10T08:34:23;98282.97;;;5.44;89.23
5609;BME280;2826;51.354;9.588;2023-01-10T08:36:51;98348.44;;;5.78;88.97
5609;BME280;2826;51.354;9.588;2023-01-10T08:39:17;98353.66;;;5.72;89.31
5609;BME280;2826;51.354;9.588;2023-01-10T08:41:46;98305.69;;;5.68;89.15
5609;BME280;2826;51.354;9.588;2023-01-10T08:44:13;98297.03;;;5.73;88.81
5609;BME280;2826;51.354;9.588;2023-01-10T08:46:40;98320.19;;;5.73;88.70
5609;BME280;2826;51.354;9.588;2023-01-10T08:49:07;98319.25;;;5.78;89.18
5609;BME280;2826;51.354;9.588;2023-01-10T08:51:34;98263.91;;;5.56;89.20
5609;BME280;2826;51.354;9.588;2023-01-10T08:54:00;98326.53;;;6.03;88.74
5609;BME280;2826;51.354;9.588;2023-01-10T08:56:27;98330.78;;;6.07;88.04
5609;BME280;2826;51.354;9.588;2023-01-10T08:58:55;98339.31;;;6.09;88.22
5609;BME280;2826;51.354;9.588;2023-01-10T09:01:21;98342.75;;;6.11;88.20
5609;BME280;2826;51.354;9.588;2023-01-10T09:03:48;98334.19;;;6.09;88.22
5609;BME280;2826;51.354;9.588;2023-01-10T09:06:15;98342.63;;;6.16;87.99
5609;BME280;2826;51.354;9.588;2023-01-10T09:08:41;98349.50;;;6.15;87.68
5609;BME280;2826;51.354;9.588;2023-01-10T09:11:08;98347.72;;;6.20;87.50
5609;BME280;2826;51.354;9.588;2023-01-10T09:13:34;98358.09;;;6.16;87.35
5609;BME280;2826;51.354;9.588;2023-01-10T09:16:03;98359.91;;;6.09;87.99
5609;BME280;2826;51.354;9.588;2023-01-10T09:18:29;98365.81;;;6.16;87.39
5609;BME280;2826;51.354;9.588;2023-01-10T09:20:56;98376.28;;;6.06;87.70
5609;BME280;2826;51.354;9.588;2023-01-10T09:23:22;98381.38;;;6.09;87.56
5609;BME280;2826;51.354;9.588;2023-01-10T09:25:51;98394.09;;;6.19;87.25
5609;BME280;2826;51.354;9.588;2023-01-10T09:28:18;98396.81;;;6.11;87.88
5609;BME280;2826;51.354;9.588;2023-01-10T09:30:45;98393.31;;;6.13;88.01
5609;BME280;2826;51.354;9.588;2023-01-10T09:33:13;98408.69;;;6.17;87.29
5609;BME280;2826;51.354;9.588;2023-01-10T09:35:40;98406.16;;;6.15;87.61
5609;BME280;2826;51.354;9.588;2023-01-10T09:38:10;98400.03;;;6.22;87.46
5609;BME280;2826;51.354;9.588;2023-01-10T09:40:53;98403.38;;;6.26;87.79
5609;BME280;2826;51.354;9.588;2023-01-10T09:43:29;98396.50;;;6.26;87.88
5609;BME280;2826;51.354;9.588;2023-01-10T09:46:06;98383.56;;;6.31;87.14
5609;BME280;2826;51.354;9.588;2023-01-10T09:48:43;98384.34;;;6.35;87.30
5609;BME280;2826;51.354;9.588;2023-01-10T09:51:24;98385.22;;;6.34;87.34
5609;BME280;2826;51.354;9.588;2023-01-10T09:53:57;98397.97;;;6.40;87.50
5609;BME280;2826;51.354;9.588;2023-01-10T09:56:25;98385.06;;;6.43;87.19
5609;BME280;2826;51.354;9.588;2023-01-10T09:58:54;98398.63;;;6.51;86.61
5609;BME280;2826;51.354;9.588;2023-01-10T10:01:24;98400.31;;;6.54;86.91
5609;BME280;2826;51.354;9.588;2023-01-10T10:03:57;98390.81;;;6.56;86.86
5609;BME280;2826;51.354;9.588;2023-01-10T10:06:27;98407.88;;;6.62;86.42
5609;BME280;2826;51.354;9.588;2023-01-10T10:08:55;98408.84;;;6.54;86.62
5609;BME280;2826;51.354;9.588;2023-01-10T10:11:36;98413.91;;;6.61;86.69
5609;BME280;2826;51.354;9.588;2023-01-10T10:14:11;98394.13;;;6.61;86.77
5609;BME280;2826;51.354;9.588;2023-01-10T10:16:53;98399.88;;;6.76;86.24
5609;BME280;2826;51.354;9.588;2023-01-10T10:19:32;98399.75;;;6.80;86.16
5609;BME280;2826;51.354;9.588;2023-01-10T10:22:07;98397.09;;;6.87;86.02
5609;BME280;2826;51.354;9.588;2023-01-10T10:24:49;98397.94;;;6.86;85.69
5609;BME280;2826;51.354;9.588;2023-01-10T10:27:21;98398.66;;;6.92;85.44
5609;BME280;2826;51.354;9.588;2023-01-10T10:30:02;98401.91;;;7.02;85.47
5609;BME280;2826;51.354;9.588;2023-01-10T10:32:53;98401.13;;;6.99;85.28
5609;BME280;2826;51.354;9.588;2023-01-10T10:35:26;98399.13;;;7.12;85.06
5609;BME280;2826;51.354;9.588;2023-01-10T10:37:57;98401.47;;;7.23;85.05
5609;BME280;2826;51.354;9.588;2023-01-10T10:40:29;98396.09;;;7.32;84.52
5609;BME280;2826;51.354;9.588;2023-01-10T10:43:09;98399.53;;;7.32;83.73
5609;BME280;2826;51.354;9.588;2023-01-10T10:45:40;98400.22;;;7.41;83.65
5609;BME280;2826;51.354;9.588;2023-01-10T10:48:12;98403.56;;;7.44;83.05
5609;BME280;2826;51.354;9.588;2023-01-10T10:50:49;98404.31;;;7.48;83.10
5609;BME280;2826;51.354;9.588;2023-01-10T10:53:17;98406.81;;;7.53;83.21
5609;BME280;2826;51.354;9.588;2023-01-10T10:55:44;98401.69;;;7.51;82.47
5609;BME280;2826;51.354;9.588;2023-01-10T10:58:11;98400.09;;;7.45;82.24
5609;BME280;2826;51.354;9.588;2023-01-10T11:00:40;98409.72;;;7.37;82.01
5609;BME280;2826;51.354;9.588;2023-01-10T11:03:18;98400.84;;;7.49;81.89
5609;BME280;2826;51.354;9.588;2023-01-10T11:05:49;98400.72;;;7.55;81.23
5609;BME280;2826;51.354;9.588;2023-01-10T11:08:17;98404.91;;;7.61;81.21
5609;BME280;2826;51.354;9.588;2023-01-10T11:10:47;98403.25;;;7.58;80.80
5609;BME280;2826;51.354;9.588;2023-01-10T11:13:17;98397.19;;;7.60;80.67
5609;BME280;2826;51.354;9.588;2023-01-10T11:15:47;98402.38;;;7.58;80.41
5609;BME280;2826;51.354;9.588;2023-01-10T11:18:17;98402.56;;;7.50;79.93
5609;BME280;2826;51.354;9.588;2023-01-10T11:20:46;98410.38;;;7.47;80.27
5609;BME280;2826;51.354;9.588;2023-01-10T11:23:23;98399.13;;;7.50;79.99
5609;BME280;2826;51.354;9.588;2023-01-10T11:25:51;98411.25;;;7.46;79.77
5609;BME280;2826;51.354;9.588;2023-01-10T11:28:21;98406.31;;;7.37;79.96
5609;BME280;2826;51.354;9.588;2023-01-10T11:30:50;98410.41;;;7.45;80.03
5609;BME280;2826;51.354;9.588;2023-01-10T11:33:20;98413.69;;;7.52;80.08
5609;BME280;2826;51.354;9.588;2023-01-10T11:35:59;98406.00;;;7.49;79.72
5609;BME280;2826;51.354;9.588;2023-01-10T11:38:28;98404.41;;;7.45;79.53
5609;BME280;2826;51.354;9.588;2023-01-10T11:40:57;98399.16;;;7.48;79.58
5609;BME280;2826;51.354;9.588;2023-01-10T11:43:27;98403.34;;;7.54;78.94
5609;BME280;2826;51.354;9.588;2023-01-10T11:45:55;98401.78;;;7.47;79.18
5609;BME280;2826;51.354;9.588;2023-01-10T11:48:24;98404.50;;;7.40;79.10
5609;BME280;2826;51.354;9.588;2023-01-10T11:50:53;98400.06;;;7.47;79.08
5609;BME280;2826;51.354;9.588;2023-01-10T11:53:33;98403.78;;;7.35;79.18
5609;BME280;2826;51.354;9.588;2023-01-10T11:56:01;98410.78;;;7.28;79.46
5609;BME280;2826;51.354;9.588;2023-01-10T11:58:29;98404.00;;;7.24;78.86
5609;BME280;2826;51.354;9.588;2023-01-10T12:00:56;98397.28;;;7.17;79.16
5609;BME280;2826;51.354;9.588;2023-01-10T12:03:26;98391.34;;;7.13;79.79
5609;BME280;2826;51.354;9.588;2023-01-10T12:05:56;98400.44;;;7.30;79.30
5609;BME280;2826;51.354;9.588;2023-01-10T12:08:27;98374.16;;;7.14;79.60
5609;BME280;2826;51.354;9.588;2023-01-10T12:11:01;98405.53;;;7.33;79.52
5609;BME280;2826;51.354;9.588;2023-01-10T12:13:30;98404.81;;;7.26;79.16
5609;BME280;2826;51.354;9.588;2023-01-10T12:16:18;98407.53;;;7.20;79.55
5609;BME280;2826;51.354;9.588;2023-01-10T12:18:47;98403.38;;;7.13;79.72
5609;BME280;2826;51.354;9.588;2023-01-10T12:21:15;98384.78;;;6.98;nan
5609;BME280;2826;51.354;9.588;2023-01-10T12:23:45;98401.88;;;7.04;81.55
5609;BME280;2826;51.354;9.588;2023-01-10T12:26:15;98411.34;;;7.02;82.02
5609;BME280;2826;51.354;9.588;2023-01-10T12:28:47;98410.53;;;7.01;82.20
5609;BME280;2826;51.354;9.588;2023-01-10T12:31:15;98407.31;;;6.90;82.76
5609;BME280;2826;51.354;9.588;2023-01-10T12:33:45;98404.84;;;6.85;83.13
5609;BME280;2826;51.354;9.588;2023-01-10T12:36:22;98413.28;;;6.92;83.30
5609;BME280;2826;51.354;9.588;2023-01-10T12:38:58;98400.50;;;6.86;82.74
5609;BME280;2826;51.354;9.588;2023-01-10T12:41:34;98407.41;;;6.85;82.17
5609;BME280;2826;51.354;9.588;2023-01-10T12:44:25;98405.75;;;6.83;81.85
5609;BME280;2826;51.354;9.588;2023-01-10T12:46:56;98412.72;;;6.77;82.18
5609;BME280;2826;51.354;9.588;2023-01-10T12:49:26;98414.53;;;6.72;82.38
5609;BME280;2826;51.354;9.588;2023-01-10T12:51:58;98404.16;;;6.75;81.89
5609;BME280;2826;51.354;9.588;2023-01-10T12:54:29;98406.81;;;6.72;82.65
5609;BME280;2826;51.354;9.588;2023-01-10T12:57:01;98411.06;;;6.73;82.49
5609;BME280;2826;51.354;9.588;2023-01-10T12:59:31;98389.09;;;6.55;81.84
5609;BME280;2826;51.354;9.588;2023-01-10T13:02:05;98407.63;;;6.74;82.12
5609;BME280;2826;51.354;9.588;2023-01-10T13:04:34;98397.31;;;6.74;82.41
5609;BME280;2826;51.354;9.588;2023-01-10T13:07:03;98397.25;;;6.77;81.89
5609;BME280;2826;51.354;9.588;2023-01-10T13:09:30;98400.59;;;6.83;81.46
5609;BME280;2826;51.354;9.588;2023-01-10T13:12:01;98366.63;;;6.63;80.32
5609;BME280;2826;51.354;9.588;2023-01-10T13:14:33;98398.03;;;6.83;80.40
5609;BME280;2826;51.354;9.588;2023-01-10T13:17:09;98406.53;;;6.86;79.92
5609;BME280;2826;51.354;9.588;2023-01-10T13:19:40;98390.44;;;6.73;79.49
5609;BME280;2826;51.354;9.588;2023-01-10T13:22:18;98408.50;;;6.73;79.27
5609;BME280;2826;51.354;9.588;2023-01-10T13:24:56;98405.66;;;6.86;79.23
5609;BME280;2826;51.354;9.588;2023-01-10T13:27:28;98419.56;;;6.80;78.53
5609;BME280;2826;51.354;9.588;2023-01-10T13:29:56;98419.50;;;6.82;78.35
5609;BME280;2826;51.354;9.588;2023-01-10T13:32:26;98418.56;;;6.86;77.74
5609;BME280;2826;51.354;9.588;2023-01-10T13:34:54;98433.28;;;6.80;78.40
5609;BME280;2826;51.354;9.588;2023-01-10T13:37:36;98424.72;;;6.80;78.07
5609;BME280;2826;51.354;9.588;2023-01-10T13:40:04;98420.44;;;6.77;78.11
5609;BME280;2826;51.354;9.588;2023-01-10T13:42:34;98417.06;;;6.75;77.58
5609;BME280;2826;51.354;9.588;2023-01-10T13:45:21;98410.50;;;6.59;78.16
5609;BME280;2826;51.354;9.588;2023-01-10T13:50:56;98412.81;;;6.73;77.51
5609;BME280;2826;51.354;9.588;2023-01-10T13:53:43;98422.13;;;6.80;77.39